Time;durP1;ratioP1;P1;durP2;ratioP2;P2;SDS_P1;SDS_P2;PMS_P1;PMS_P2;Temp;Humidity;BMP_temperature;BMP_pressure;BME280_temperature;BME280_humidity;BME280_pressure;Samples;Min_cycle;Max_cycle;Signal;HPM_P1;HPM_P2
2022/06/30 00:00:43;;;;;;;4.43;3.55;;;22.70;57.80;;;;;;5037114;28;20032;-70
2022/06/30 00:03:09;;;;;;;5.05;4.20;;;22.70;57.80;;;;;;5038477;28;20013;-70
2022/06/30 00:05:35;;;;;;;5.35;4.85;;;22.70;57.80;;;;;;5037917;28;20407;-71
2022/06/30 00:08:00;;;;;;;5.25;4.75;;;22.60;57.90;;;;;;5038748;28;20078;-71
2022/06/30 00:10:26;;;;;;;4.07;3.22;;;22.60;58.10;;;;;;5037522;28;20032;-70
2022/06/30 00:12:52;;;;;;;4.68;3.72;;;22.60;58.00;;;;;;5037770;28;20029;-70
2022/06/30 00:15:18;;;;;;;4.38;3.75;;;22.60;58.10;;;;;;5038455;28;20413;-70
2022/06/30 00:17:44;;;;;;;4.82;4.32;;;22.60;58.20;;;;;;5038268;28;20499;-70
2022/06/30 00:20:10;;;;;;;4.55;3.88;;;22.60;58.20;;;;;;5037495;28;20096;-70
2022/06/30 00:22:36;;;;;;;4.95;4.30;;;22.50;58.30;;;;;;5035020;28;20033;-71
2022/06/30 00:25:01;;;;;;;5.57;3.92;;;22.50;58.50;;;;;;5038989;28;20039;-70
2022/06/30 00:27:27;;;;;;;5.57;4.60;;;22.50;58.50;;;;;;5038986;28;20041;-70
2022/06/30 00:29:52;;;;;;;5.95;4.97;;;22.50;58.80;;;;;;5039925;28;20029;-70
2022/06/30 00:32:18;;;;;;;7.40;4.85;;;22.50;59.00;;;;;;5039652;28;20036;-70
2022/06/30 00:34:44;;;;;;;6.32;4.82;;;22.40;59.00;;;;;;5039650;28;20028;-70
2022/06/30 00:37:09;;;;;;;5.75;5.15;;;22.40;59.00;;;;;;5040530;28;20049;-70
2022/06/30 00:39:35;;;;;;;8.90;6.88;;;22.50;59.10;;;;;;5039234;28;20040;-70
2022/06/30 00:42:01;;;;;;;8.10;6.18;;;22.40;59.20;;;;;;5038922;28;20021;-70
2022/06/30 00:44:27;;;;;;;7.13;5.50;;;22.40;59.20;;;;;;5038232;28;20074;-70
2022/06/30 00:46:53;;;;;;;6.45;5.00;;;22.40;59.20;;;;;;5038772;28;20025;-70
2022/06/30 00:49:19;;;;;;;5.47;4.95;;;22.50;59.10;;;;;;5041561;28;20037;-70
2022/06/30 00:51:45;;;;;;;4.70;4.20;;;22.40;59.40;;;;;;5042952;28;20053;-68
2022/06/30 00:54:11;;;;;;;6.13;5.07;;;22.40;59.40;;;;;;5038786;28;20033;-69
2022/06/30 00:56:41;;;;;;;6.65;5.07;;;22.40;59.60;;;;;;5031241;28;20028;-70
2022/06/30 00:59:09;;;;;;;6.63;5.47;;;22.40;59.60;;;;;;5036082;28;20032;-70
2022/06/30 01:01:36;;;;;;;6.45;5.18;;;22.40;59.80;;;;;;5041841;28;20087;-70
2022/06/30 01:04:02;;;;;;;5.03;4.18;;;22.40;59.70;;;;;;5045611;28;20078;-71
2022/06/30 01:06:29;;;;;;;7.38;4.60;;;22.40;59.60;;;;;;5042202;28;20540;-71
2022/06/30 01:08:56;;;;;;;5.55;4.80;;;22.40;59.70;;;;;;5044019;28;20503;-71
2022/06/30 01:14:05;;;;;;;5.60;4.47;;;22.40;59.80;;;;;;5038866;28;20036;-70
2022/06/30 01:16:31;;;;;;;5.13;4.45;;;22.40;60.00;;;;;;5029641;28;20025;-70
2022/06/30 01:18:56;;;;;;;5.53;4.65;;;22.40;60.00;;;;;;5040379;28;20063;-70
2022/06/30 01:21:27;;;;;;;4.53;4.13;;;22.30;60.10;;;;;;5042952;28;20748;-70
2022/06/30 01:23:52;;;;;;;5.20;4.70;;;22.30;60.20;;;;;;5034124;28;20032;-68
2022/06/30 01:26:18;;;;;;;5.20;4.70;;;22.30;60.40;;;;;;5037963;28;20032;-69
2022/06/30 01:28:44;;;;;;;6.20;4.50;;;22.30;60.40;;;;;;5045880;28;20021;-69
2022/06/30 01:31:09;;;;;;;5.22;4.72;;;22.20;60.60;;;;;;5050077;28;20033;-69
2022/06/30 01:33:35;;;;;;;5.55;4.90;;;22.20;60.60;;;;;;5036457;28;20538;-69
2022/06/30 01:36:01;;;;;;;5.80;4.82;;;22.20;60.80;;;;;;5034235;28;20033;-69
2022/06/30 01:38:27;;;;;;;5.35;4.70;;;22.20;60.90;;;;;;5046138;28;20029;-69
2022/06/30 01:40:52;;;;;;;5.68;4.50;;;22.10;61.00;;;;;;5042102;28;20111;-68
2022/06/30 01:43:18;;;;;;;6.00;5.40;;;22.10;61.10;;;;;;5035243;28;20025;-68
2022/06/30 01:45:44;;;;;;;5.60;4.93;;;22.00;61.40;;;;;;5046884;28;20114;-71
2022/06/30 01:48:10;;;;;;;6.00;5.40;;;22.00;61.70;;;;;;5035045;28;20017;-69
2022/06/30 01:50:36;;;;;;;5.38;4.82;;;22.00;61.80;;;;;;5033111;28;20502;-69
2022/06/30 01:53:02;;;;;;;5.95;5.35;;;22.00;61.80;;;;;;5047108;28;20025;-70
2022/06/30 01:55:28;;;;;;;6.70;4.35;;;21.90;61.90;;;;;;5036874;28;20232;-70
2022/06/30 01:57:54;;;;;;;5.07;4.60;;;22.00;61.80;;;;;;5039907;28;20029;-70
2022/06/30 02:00:23;;;;;;;4.47;3.95;;;21.90;61.80;;;;;;5050228;28;20025;-70
2022/06/30 02:02:49;;;;;;;6.05;4.70;;;21.90;61.90;;;;;;5040886;28;20116;-70
2022/06/30 02:05:16;;;;;;;5.47;4.97;;;21.90;61.90;;;;;;5036432;28;20105;-72
2022/06/30 02:07:42;;;;;;;5.65;5.05;;;21.90;62.10;;;;;;5047334;28;20463;-71
2022/06/30 02:10:10;;;;;;;5.60;5.05;;;21.80;62.10;;;;;;5035630;28;20072;-71
2022/06/30 02:12:45;;;;;;;6.53;5.40;;;21.90;62.20;;;;;;5039337;28;20033;-72
2022/06/30 02:15:19;;;;;;;4.43;4.03;;;21.80;62.10;;;;;;5035869;28;20475;-69
2022/06/30 02:17:46;;;;;;;5.28;4.78;;;21.80;62.20;;;;;;5040673;28;20597;-70
2022/06/30 02:20:12;;;;;;;6.00;4.85;;;21.70;62.40;;;;;;5045195;28;20047;-69
2022/06/30 02:22:40;;;;;;;5.47;4.40;;;21.70;62.50;;;;;;5040140;28;20033;-69
2022/06/30 02:25:07;;;;;;;5.10;4.60;;;21.70;62.40;;;;;;5034512;28;20551;-70
2022/06/30 02:27:33;;;;;;;6.25;5.45;;;21.70;62.40;;;;;;5044271;28;20048;-72
2022/06/30 02:29:58;;;;;;;4.60;4.18;;;21.70;62.60;;;;;;5049082;28;20029;-72
2022/06/30 02:32:24;;;;;;;5.10;4.60;;;21.80;62.40;;;;;;5038475;28;20033;-70
2022/06/30 02:34:51;;;;;;;5.75;4.45;;;21.80;62.20;;;;;;5032303;28;20025;-69
2022/06/30 02:37:17;;;;;;;5.95;4.55;;;21.80;62.20;;;;;;5033976;28;20129;-71
2022/06/30 02:39:44;;;;;;;4.88;4.38;;;21.80;62.10;;;;;;5050437;28;20037;-69
2022/06/30 02:42:09;;;;;;;5.90;4.45;;;21.80;62.10;;;;;;5048787;28;20506;-68
2022/06/30 02:44:35;;;;;;;5.40;4.90;;;21.80;62.10;;;;;;5031855;28;20033;-69
2022/06/30 02:47:02;;;;;;;6.43;4.65;;;21.80;62.20;;;;;;5040570;28;20025;-69
2022/06/30 02:49:27;;;;;;;4.45;4.05;;;21.80;62.30;;;;;;5035534;28;20033;-70
2022/06/30 02:51:53;;;;;;;6.20;5.03;;;21.80;62.30;;;;;;5043480;28;20060;-69
2022/06/30 02:54:19;;;;;;;5.97;5.05;;;21.80;63.00;;;;;;5034798;28;20025;-69
2022/06/30 02:56:44;;;;;;;6.22;4.90;;;21.80;62.50;;;;;;5033851;28;20035;-70
2022/06/30 02:59:10;;;;;;;5.20;4.70;;;21.80;62.40;;;;;;5048369;28;20554;-69
2022/06/30 03:01:36;;;;;;;8.85;6.88;;;21.80;62.30;;;;;;5036302;28;20108;-71
2022/06/30 03:04:02;;;;;;;8.40;7.50;;;21.80;62.30;;;;;;5041370;28;20121;-70
2022/06/30 03:06:29;;;;;;;6.82;6.13;;;21.70;62.50;;;;;;5046267;28;20528;-70
2022/06/30 03:08:57;;;;;;;6.60;5.97;;;21.70;62.80;;;;;;5042769;28;20536;-69
2022/06/30 03:11:23;;;;;;;6.60;6.00;;;21.60;62.90;;;;;;5049528;28;20029;-70
2022/06/30 03:13:49;;;;;;;6.32;5.40;;;21.60;63.10;;;;;;5038890;28;20155;-70
2022/06/30 03:16:15;;;;;;;6.80;6.15;;;21.60;63.00;;;;;;5050076;28;20108;-69
2022/06/30 03:18:41;;;;;;;6.25;5.65;;;21.50;63.50;;;;;;5041330;28;20029;-70
2022/06/30 03:21:07;;;;;;;5.13;4.63;;;21.50;63.40;;;;;;5032136;28;20022;-69
2022/06/30 03:23:33;;;;;;;6.30;5.70;;;21.50;63.40;;;;;;5045448;28;20025;-69
2022/06/30 03:25:59;;;;;;;6.38;5.78;;;21.50;63.40;;;;;;5041566;28;20034;-70
2022/06/30 03:28:25;;;;;;;5.88;5.28;;;21.50;63.40;;;;;;5045448;28;20032;-70
2022/06/30 03:30:51;;;;;;;6.55;5.80;;;21.50;63.50;;;;;;5036125;28;20033;-71
2022/06/30 03:33:17;;;;;;;7.63;6.47;;;21.50;63.60;;;;;;5046497;28;20033;-71
2022/06/30 03:35:44;;;;;;;7.70;6.88;;;21.40;63.90;;;;;;5029681;28;20028;-71
2022/06/30 03:38:10;;;;;;;7.05;6.28;;;21.40;64.00;;;;;;5032549;28;20027;-71
2022/06/30 03:40:35;;;;;;;8.07;7.13;;;21.40;64.10;;;;;;5049385;28;20504;-71
2022/06/30 03:43:01;;;;;;;8.93;6.35;;;21.40;64.60;;;;;;5046277;28;20468;-71
2022/06/30 03:45:28;;;;;;;7.60;6.80;;;21.40;64.50;;;;;;5033550;28;20470;-70
2022/06/30 03:47:53;;;;;;;8.07;7.28;;;21.40;64.40;;;;;;5044134;28;20079;-68
2022/06/30 03:50:19;;;;;;;7.50;6.60;;;21.50;64.50;;;;;;5044973;28;20033;-69
2022/06/30 03:52:45;;;;;;;7.88;7.07;;;21.40;64.50;;;;;;5032744;28;20025;-70
2022/06/30 03:55:11;;;;;;;8.50;7.60;;;21.40;64.80;;;;;;5046502;28;20446;-70
2022/06/30 03:57:37;;;;;;;7.75;6.95;;;21.40;64.90;;;;;;5032326;28;20047;-69
2022/06/30 04:00:04;;;;;;;7.13;6.40;;;21.40;65.00;;;;;;5042304;28;20373;-70
2022/06/30 04:02:30;;;;;;;7.43;6.57;;;21.40;65.00;;;;;;5035088;28;20037;-70
2022/06/30 04:04:55;;;;;;;7.28;6.50;;;21.40;65.10;;;;;;5040795;28;20492;-70
2022/06/30 04:07:21;;;;;;;7.32;6.63;;;21.40;65.00;;;;;;5035707;28;20043;-71
2022/06/30 04:09:47;;;;;;;8.45;7.53;;;21.40;65.10;;;;;;5048440;28;20028;-71
2022/06/30 04:12:12;;;;;;;7.55;6.78;;;21.40;65.30;;;;;;5040081;28;20021;-70
2022/06/30 04:14:38;;;;;;;8.13;7.32;;;21.50;65.20;;;;;;5038202;28;20036;-69
2022/06/30 04:17:04;;;;;;;9.40;8.50;;;21.40;65.60;;;;;;5045914;28;20385;-69
2022/06/30 04:19:30;;;;;;;8.40;7.13;;;21.30;65.90;;;;;;5035943;28;20099;-69
2022/06/30 04:21:56;;;;;;;8.45;7.53;;;21.40;65.90;;;;;;5044111;28;20021;-69
2022/06/30 04:24:21;;;;;;;8.63;7.35;;;21.40;65.90;;;;;;5044712;28;20025;-70
2022/06/30 04:26:47;;;;;;;8.02;6.60;;;21.40;65.90;;;;;;5035819;28;20025;-69
2022/06/30 04:29:13;;;;;;;10.32;9.02;;;21.50;65.90;;;;;;5042793;28;20377;-70
2022/06/30 04:34:22;;;;;;;8.32;7.25;;;21.50;66.10;;;;;;5039987;28;20118;-69
2022/06/30 04:36:48;;;;;;;9.35;7.72;;;21.50;66.20;;;;;;5035632;28;20053;-70
2022/06/30 04:39:13;;;;;;;7.00;6.30;;;21.60;66.00;;;;;;5033461;28;20100;-69
2022/06/30 04:41:39;;;;;;;8.70;7.80;;;21.70;65.70;;;;;;5040390;28;20123;-69
2022/06/30 04:44:05;;;;;;;7.97;6.68;;;21.70;65.90;;;;;;5031941;28;20033;-71
2022/06/30 04:46:31;;;;;;;7.40;6.60;;;21.70;65.70;;;;;;5043503;28;20111;-70
2022/06/30 04:48:57;;;;;;;8.98;7.20;;;21.80;65.50;;;;;;5039552;28;20025;-71
2022/06/30 04:51:23;;;;;;;7.65;6.93;;;21.80;65.40;;;;;;5043580;28;20389;-69
2022/06/30 04:53:49;;;;;;;7.25;6.53;;;21.80;65.50;;;;;;5043770;28;20029;-71
2022/06/30 04:56:15;;;;;;;9.25;6.47;;;22.00;65.20;;;;;;5041763;28;20017;-69
2022/06/30 04:58:41;;;;;;;8.63;7.72;;;22.50;64.20;;;;;;5048496;28;20036;-70
2022/06/30 05:01:07;;;;;;;8.05;7.25;;;22.90;63.30;;;;;;5048581;28;20021;-69
2022/06/30 05:03:33;;;;;;;8.95;8.05;;;23.30;62.50;;;;;;5040154;28;20108;-70
2022/06/30 05:05:59;;;;;;;7.38;6.65;;;23.70;61.60;;;;;;5039119;28;20107;-70
2022/06/30 05:08:26;;;;;;;7.47;6.63;;;24.00;60.70;;;;;;5050843;28;20033;-70
2022/06/30 05:10:51;;;;;;;7.15;6.45;;;24.30;60.00;;;;;;5051955;28;20033;-70
2022/06/30 05:13:17;;;;;;;10.48;8.25;;;24.60;59.30;;;;;;5047114;28;20027;-70
2022/06/30 05:15:45;;;;;;;10.52;8.20;;;24.80;58.70;;;;;;5039085;28;20017;-71
2022/06/30 05:18:10;;;;;;;9.63;8.50;;;25.10;58.30;;;;;;5047890;28;20483;-71
2022/06/30 05:20:36;;;;;;;9.02;8.13;;;25.20;58.10;;;;;;5045602;28;20057;-71
2022/06/30 05:23:02;;;;;;;8.38;7.10;;;25.50;57.80;;;;;;5061119;28;20025;-69
2022/06/30 05:28:12;;;;;;;7.32;6.63;;;25.80;56.90;;;;;;5037993;28;20044;-70
2022/06/30 05:30:37;;;;;;;9.02;8.13;;;26.00;56.60;;;;;;5042859;28;20112;-70
2022/06/30 05:33:03;;;;;;;9.68;8.77;;;26.00;56.50;;;;;;5047299;28;20158;-70
2022/06/30 05:35:29;;;;;;;8.10;7.30;;;26.00;56.50;;;;;;5050135;28;20483;-70
2022/06/30 05:37:54;;;;;;;8.20;7.10;;;26.20;56.70;;;;;;5045948;28;20567;-69
2022/06/30 05:40:20;;;;;;;10.25;8.02;;;26.40;56.50;;;;;;5042486;28;20021;-70
2022/06/30 05:42:45;;;;;;;11.20;10.02;;;26.40;56.20;;;;;;5036987;28;20078;-69
2022/06/30 05:45:11;;;;;;;8.25;6.70;;;26.40;56.20;;;;;;5044569;28;20063;-71
2022/06/30 05:47:51;;;;;;;11.38;10.18;;;26.20;56.50;;;;;;5041981;28;20082;-69
2022/06/30 05:50:18;;;;;;;9.57;8.20;;;26.10;56.70;;;;;;5042329;28;20037;-69
2022/06/30 05:52:44;;;;;;;10.52;8.40;;;26.00;57.00;;;;;;5042306;28;20480;-70
2022/06/30 05:55:10;;;;;;;8.93;7.75;;;26.10;56.90;;;;;;5039885;28;20387;-70
2022/06/30 05:58:10;;;;;;;9.98;8.98;;;26.20;56.90;;;;;;5034723;28;20070;-70
2022/06/30 06:00:35;;;;;;;9.00;8.07;;;26.00;57.30;;;;;;5023885;28;20067;-69
2022/06/30 06:03:01;;;;;;;9.20;8.30;;;26.00;57.40;;;;;;5052227;28;20024;-69
2022/06/30 06:05:26;;;;;;;9.85;8.85;;;26.00;57.30;;;;;;5050343;28;20067;-70
2022/06/30 06:07:52;;;;;;;8.55;7.35;;;26.00;57.20;;;;;;5051988;28;20021;-71
2022/06/30 06:10:18;;;;;;;8.35;7.45;;;25.90;57.10;;;;;;5049257;28;20063;-69
2022/06/30 06:12:44;;;;;;;10.63;9.20;;;26.00;57.20;;;;;;5052251;28;20025;-69
2022/06/30 06:15:14;;;;;;;9.68;8.68;;;25.90;56.80;;;;;;5045652;28;20360;-69
2022/06/30 06:17:45;;;;;;;14.52;11.95;;;25.90;57.00;;;;;;5032128;28;20029;-69
2022/06/30 06:20:13;;;;;;;9.15;8.18;;;25.70;56.70;;;;;;5035967;28;20098;-68
2022/06/30 06:22:39;;;;;;;9.95;8.88;;;25.70;57.20;;;;;;5032303;28;20025;-68
2022/06/30 06:25:06;;;;;;;11.00;9.52;;;25.70;57.20;;;;;;5036181;28;20032;-68
2022/06/30 06:27:32;;;;;;;8.70;7.65;;;25.70;56.80;;;;;;5051917;28;20032;-69
2022/06/30 06:29:57;;;;;;;8.52;7.68;;;25.80;56.80;;;;;;5046758;28;20039;-69
2022/06/30 06:32:23;;;;;;;9.63;7.70;;;25.90;56.60;;;;;;5032202;28;20096;-70
2022/06/30 06:34:49;;;;;;;9.77;8.32;;;26.10;56.50;;;;;;5032051;28;20033;-69
2022/06/30 06:37:14;;;;;;;8.32;7.53;;;26.20;56.30;;;;;;5051925;28;20495;-69
2022/06/30 06:39:40;;;;;;;10.52;7.97;;;26.30;56.10;;;;;;5042061;28;20274;-69
2022/06/30 06:42:06;;;;;;;7.53;6.72;;;26.30;55.90;;;;;;5050246;28;20035;-69
2022/06/30 06:44:31;;;;;;;9.07;6.70;;;26.50;55.80;;;;;;5051604;28;20040;-69
2022/06/30 06:46:57;;;;;;;8.68;6.25;;;26.70;55.30;;;;;;5036798;28;20047;-69
2022/06/30 06:49:22;;;;;;;7.18;5.80;;;27.00;54.90;;;;;;5037444;28;20033;-68
2022/06/30 06:51:48;;;;;;;8.30;7.07;;;27.10;54.40;;;;;;5045792;28;20025;-68
2022/06/30 06:54:14;;;;;;;6.75;5.70;;;27.20;53.70;;;;;;5051062;28;20412;-68
2022/06/30 06:56:39;;;;;;;9.18;7.70;;;27.30;53.90;;;;;;5036300;28;20022;-68
2022/06/30 06:59:05;;;;;;;7.30;6.15;;;27.40;53.00;;;;;;5039547;28;20056;-68
2022/06/30 07:01:30;;;;;;;8.60;7.15;;;27.30;53.00;;;;;;5049534;28;20025;-68
2022/06/30 07:03:56;;;;;;;6.72;6.00;;;27.20;52.70;;;;;;5050049;28;20040;-68
2022/06/30 07:06:21;;;;;;;6.38;5.65;;;27.00;52.50;;;;;;5041496;28;20104;-68
2022/06/30 07:08:47;;;;;;;6.78;6.03;;;27.10;52.60;;;;;;5049607;28;20045;-68
2022/06/30 07:11:12;;;;;;;6.90;5.93;;;27.20;52.60;;;;;;5046487;28;20017;-68
2022/06/30 07:13:38;;;;;;;6.38;5.53;;;27.30;52.40;;;;;;5036992;28;20123;-68
2022/06/30 07:16:04;;;;;;;8.00;7.20;;;27.40;52.30;;;;;;5037135;28;20029;-68
2022/06/30 07:18:30;;;;;;;7.55;6.47;;;27.60;52.10;;;;;;5050517;28;20044;-68
2022/06/30 07:20:55;;;;;;;7.78;5.70;;;27.60;52.30;;;;;;5046087;28;20500;-68
2022/06/30 07:23:21;;;;;;;7.15;6.18;;;27.70;52.40;;;;;;5032132;28;20033;-68
2022/06/30 07:25:46;;;;;;;8.25;5.75;;;27.80;52.10;;;;;;5048387;28;20025;-67
2022/06/30 07:28:12;;;;;;;8.25;6.80;;;27.80;52.30;;;;;;5031179;28;20039;-69
2022/06/30 07:30:38;;;;;;;7.88;6.35;;;27.80;52.20;;;;;;5030900;28;20498;-67
2022/06/30 07:33:04;;;;;;;6.10;5.40;;;27.80;52.00;;;;;;5045117;28;20055;-67
2022/06/30 07:35:29;;;;;;;7.70;5.85;;;27.90;51.80;;;;;;5039166;28;20123;-68
2022/06/30 07:37:55;;;;;;;11.70;7.93;;;28.00;51.80;;;;;;5032537;28;20033;-69
2022/06/30 07:40:20;;;;;;;9.15;6.13;;;28.20;51.50;;;;;;5030880;28;20092;-69
2022/06/30 07:42:47;;;;;;;8.88;7.75;;;28.20;51.50;;;;;;5045439;28;20032;-69
2022/06/30 07:45:13;;;;;;;9.60;8.60;;;28.30;51.20;;;;;;5030795;28;20029;-68
2022/06/30 07:47:39;;;;;;;9.38;7.72;;;28.20;50.80;;;;;;5044849;28;20040;-69
2022/06/30 07:50:06;;;;;;;9.32;6.72;;;28.10;51.20;;;;;;5049955;28;20037;-68
2022/06/30 07:52:33;;;;;;;8.07;6.95;;;28.00;51.30;;;;;;5040657;28;20108;-69
2022/06/30 07:54:59;;;;;;;9.85;8.30;;;28.20;51.40;;;;;;5047575;28;20025;-69
2022/06/30 07:57:27;;;;;;;9.05;7.28;;;28.30;51.30;;;;;;5046517;28;20472;-68
2022/06/30 07:59:53;;;;;;;9.38;7.13;;;28.40;51.10;;;;;;5048874;28;20029;-69
2022/06/30 08:02:18;;;;;;;7.25;6.07;;;28.50;50.80;;;;;;5044892;28;20026;-69
2022/06/30 08:04:44;;;;;;;6.57;5.43;;;28.60;50.50;;;;;;5043289;28;20040;-68
2022/06/30 08:07:09;;;;;;;9.93;8.02;;;28.70;50.50;;;;;;5050241;28;20040;-68
2022/06/30 08:09:35;;;;;;;7.65;6.85;;;28.60;50.20;;;;;;5044943;28;20607;-68
2022/06/30 08:12:01;;;;;;;6.57;5.93;;;28.60;50.30;;;;;;5040022;28;20070;-68
2022/06/30 08:14:27;;;;;;;8.07;6.60;;;28.70;50.40;;;;;;5042845;28;20507;-68
2022/06/30 08:16:52;;;;;;;8.60;6.07;;;28.80;50.50;;;;;;5044136;28;20030;-69
2022/06/30 08:19:19;;;;;;;7.60;6.28;;;28.70;50.50;;;;;;5046301;28;20819;-69
2022/06/30 08:21:46;;;;;;;9.05;6.57;;;28.60;50.20;;;;;;5042417;28;20392;-68
2022/06/30 08:24:12;;;;;;;8.15;6.10;;;28.60;50.80;;;;;;5043792;28;20679;-68
2022/06/30 08:26:37;;;;;;;12.88;9.15;;;28.60;50.10;;;;;;5042882;28;20021;-69
2022/06/30 08:29:03;;;;;;;5.70;4.97;;;28.50;50.20;;;;;;5037939;28;20033;-69
2022/06/30 08:31:29;;;;;;;7.97;6.72;;;28.50;50.60;;;;;;5037062;28;20070;-68
2022/06/30 08:33:55;;;;;;;8.40;6.15;;;28.50;50.60;;;;;;5050395;28;20036;-68
2022/06/30 08:36:22;;;;;;;9.25;6.70;;;28.70;50.70;;;;;;5054978;28;20017;-68
2022/06/30 08:38:47;;;;;;;8.23;6.75;;;28.80;50.70;;;;;;5049400;28;20024;-68
2022/06/30 08:43:59;;;;;;;8.32;6.63;;;28.60;50.10;;;;;;5049375;28;20604;-68
2022/06/30 08:46:27;;;;;;;8.25;7.38;;;28.60;50.40;;;;;;5039194;28;20021;-68
2022/06/30 08:48:53;;;;;;;9.10;6.22;;;28.60;50.20;;;;;;5040932;28;20029;-69
2022/06/30 08:51:20;;;;;;;8.45;6.25;;;28.60;50.40;;;;;;5047143;28;20471;-68
2022/06/30 08:54:06;;;;;;;7.60;6.05;;;28.60;50.50;;;;;;5051304;28;20026;-69
2022/06/30 08:56:34;;;;;;;5.90;5.20;;;28.60;50.70;;;;;;5054873;28;20033;-68
2022/06/30 08:59:02;;;;;;;6.70;4.93;;;28.70;50.10;;;;;;5044171;28;20483;-69
2022/06/30 09:01:28;;;;;;;5.10;4.10;;;28.70;49.30;;;;;;5048840;28;20395;-68
2022/06/30 09:03:54;;;;;;;8.50;5.22;;;28.80;49.10;;;;;;5057122;28;20029;-69
2022/06/30 09:06:20;;;;;;;6.30;3.70;;;28.90;48.10;;;;;;5067369;28;20115;-68
2022/06/30 09:08:45;;;;;;;4.20;3.25;;;28.90;48.30;;;;;;5053228;28;20048;-69
2022/06/30 09:11:11;;;;;;;6.38;3.33;;;29.00;48.40;;;;;;5058323;28;20021;-69
2022/06/30 09:13:44;;;;;;;3.88;2.63;;;29.00;47.90;;;;;;5062769;28;20399;-69
2022/06/30 09:16:11;;;;;;;4.80;2.80;;;29.10;48.00;;;;;;5058559;28;20033;-69
2022/06/30 09:18:37;;;;;;;4.13;2.72;;;29.10;47.70;;;;;;5051097;28;20029;-68
2022/06/30 09:21:19;;;;;;;4.13;2.83;;;29.10;47.40;;;;;;5048729;28;20079;-68
2022/06/30 09:23:47;;;;;;;3.35;2.38;;;29.10;46.70;;;;;;5054349;28;20078;-69
2022/06/30 09:26:22;;;;;;;3.88;2.58;;;29.00;46.80;;;;;;5054688;28;20021;-68
2022/06/30 09:28:55;;;;;;;5.05;2.55;;;29.00;46.80;;;;;;5046984;28;20037;-68
2022/06/30 09:31:44;;;;;;;5.70;2.70;;;29.20;46.90;;;;;;5037544;28;20388;-68
2022/06/30 09:34:20;;;;;;;4.22;2.35;;;29.40;46.90;;;;;;5063442;28;20028;-68
2022/06/30 09:36:51;;;;;;;4.00;2.53;;;29.50;46.70;;;;;;5053233;28;20025;-68
2022/06/30 09:39:17;;;;;;;4.57;2.22;;;29.60;46.90;;;;;;5046700;28;20029;-68
2022/06/30 09:41:44;;;;;;;5.57;3.17;;;29.60;46.80;;;;;;5061775;28;20055;-68
2022/06/30 09:44:16;;;;;;;3.70;2.00;;;29.50;46.60;;;;;;5062208;28;20078;-68
2022/06/30 09:47:02;;;;;;;2.63;1.77;;;29.60;46.70;;;;;;5055049;28;20037;-69
2022/06/30 09:49:29;;;;;;;3.58;2.47;;;29.80;46.70;;;;;;5036148;28;20063;-68
2022/06/30 09:52:04;;;;;;;8.32;2.83;;;29.80;46.50;;;;;;5065414;28;20475;-68
2022/06/30 09:54:34;;;;;;;3.75;2.10;;;29.70;46.10;;;;;;5047042;28;20563;-68
2022/06/30 09:57:07;;;;;;;4.13;1.80;;;29.70;46.20;;;;;;5047116;28;20013;-68
2022/06/30 09:59:34;;;;;;;4.30;2.03;;;29.70;46.20;;;;;;5042319;28;20029;-68
2022/06/30 10:02:00;;;;;;;4.18;1.70;;;29.90;46.30;;;;;;5045137;28;20410;-68
2022/06/30 10:04:26;;;;;;;3.00;1.80;;;30.00;46.20;;;;;;5041418;28;20025;-68
2022/06/30 10:06:52;;;;;;;3.42;1.60;;;30.00;46.00;;;;;;5047483;28;20033;-68
2022/06/30 10:09:18;;;;;;;2.13;1.30;;;30.00;45.80;;;;;;5044060;28;20120;-69
2022/06/30 10:11:46;;;;;;;2.47;1.55;;;30.10;45.90;;;;;;5042909;28;20436;-69
2022/06/30 10:14:12;;;;;;;2.83;1.55;;;30.10;45.60;;;;;;5043768;28;20029;-68
2022/06/30 10:16:41;;;;;;;3.08;1.50;;;30.20;45.40;;;;;;5056552;28;20108;-68
2022/06/30 10:19:10;;;;;;;3.17;1.30;;;30.20;44.90;;;;;;5053087;28;20101;-69
2022/06/30 10:21:37;;;;;;;1.83;1.10;;;30.20;44.20;;;;;;5064937;28;20021;-69
2022/06/30 10:24:05;;;;;;;2.65;1.30;;;30.30;44.00;;;;;;5050580;28;20112;-69
2022/06/30 10:29:15;;;;;;;2.47;1.42;;;30.40;43.80;;;;;;5052419;28;20403;-69
2022/06/30 10:32:01;;;;;;;3.38;1.48;;;30.40;43.90;;;;;;5052228;28;20021;-68
2022/06/30 10:34:36;;;;;;;3.13;1.50;;;30.50;44.10;;;;;;5052442;28;20516;-68
2022/06/30 10:37:19;;;;;;;2.20;1.33;;;30.30;43.80;;;;;;5068627;28;20020;-68
2022/06/30 10:39:55;;;;;;;2.22;1.33;;;30.40;43.80;;;;;;5053618;28;20060;-68
2022/06/30 10:42:45;;;;;;;2.47;1.45;;;30.40;43.80;;;;;;5059862;28;20048;-68
2022/06/30 10:45:29;;;;;;;2.42;1.52;;;30.50;43.60;;;;;;5052606;28;20032;-68
2022/06/30 10:48:05;;;;;;;1.73;1.00;;;30.60;43.50;;;;;;5060901;28;20037;-69
2022/06/30 10:50:36;;;;;;;2.78;1.50;;;30.60;43.70;;;;;;5054954;28;20029;-68
2022/06/30 10:53:05;;;;;;;3.65;1.42;;;30.70;43.70;;;;;;5055483;28;20088;-69
2022/06/30 10:55:49;;;;;;;2.58;1.42;;;30.70;43.30;;;;;;5050966;28;20108;-68
2022/06/30 10:58:16;;;;;;;2.72;1.40;;;30.80;42.70;;;;;;5053615;28;20390;-69
2022/06/30 11:00:41;;;;;;;3.25;1.60;;;30.80;42.40;;;;;;5064653;28;20431;-68
2022/06/30 11:03:07;;;;;;;1.80;1.10;;;30.80;42.50;;;;;;5053631;28;20116;-69
2022/06/30 11:05:32;;;;;;;2.83;1.40;;;31.00;42.90;;;;;;5054127;28;20046;-67
2022/06/30 11:08:36;;;;;;;2.70;1.52;;;31.10;42.80;;;;;;5061964;28;20021;-68
2022/06/30 11:11:28;;;;;;;1.65;1.27;;;31.00;42.80;;;;;;5066114;28;20025;-67
2022/06/30 11:14:03;;;;;;;2.35;1.27;;;31.10;43.20;;;;;;5058330;28;20391;-69
2022/06/30 11:16:33;;;;;;;3.35;1.50;;;31.10;43.30;;;;;;5063290;28;20123;-68
2022/06/30 11:19:01;;;;;;;2.92;1.70;;;31.20;43.30;;;;;;5052238;28;20029;-68
2022/06/30 11:21:31;;;;;;;3.55;1.40;;;31.40;43.00;;;;;;5055845;28;20495;-68
2022/06/30 11:24:02;;;;;;;4.20;1.55;;;31.40;42.30;;;;;;5062135;28;20021;-68
2022/06/30 11:29:17;;;;;;;3.75;1.63;;;31.40;41.90;;;;;;5049823;28;20099;-68
2022/06/30 11:31:43;;;;;;;2.92;1.10;;;31.50;42.20;;;;;;5038346;28;20404;-69
2022/06/30 11:34:18;;;;;;;2.40;1.20;;;31.50;42.30;;;;;;5042816;28;20388;-68
2022/06/30 11:36:45;;;;;;;2.20;1.10;;;31.50;43.00;;;;;;5043112;28;20112;-69
2022/06/30 11:39:17;;;;;;;3.30;1.50;;;31.60;42.40;;;;;;5048656;28;20288;-68
2022/06/30 11:41:57;;;;;;;2.45;1.05;;;31.80;42.00;;;;;;5042404;28;20081;-68
2022/06/30 11:44:33;;;;;;;2.47;1.60;;;32.00;41.80;;;;;;5050955;28;20082;-70
2022/06/30 11:47:03;;;;;;;2.55;1.33;;;32.00;41.20;;;;;;5057966;28;20021;-67
2022/06/30 11:49:45;;;;;;;3.72;1.50;;;32.10;41.30;;;;;;5044327;28;20461;-68
2022/06/30 11:52:22;;;;;;;2.75;1.55;;;32.20;40.90;;;;;;5049043;28;20625;-67
2022/06/30 11:54:54;;;;;;;3.20;1.90;;;32.00;40.90;;;;;;5049920;28;20044;-68
2022/06/30 11:57:24;;;;;;;2.33;1.42;;;31.90;41.10;;;;;;5045442;28;20078;-68
2022/06/30 11:59:53;;;;;;;3.65;1.52;;;31.70;41.20;;;;;;5046833;28;20057;-68
2022/06/30 12:02:19;;;;;;;2.75;1.65;;;31.60;41.40;;;;;;5062717;28;20119;-68
2022/06/30 12:04:51;;;;;;;3.53;1.20;;;31.70;41.40;;;;;;5050844;28;20052;-68
2022/06/30 12:07:17;;;;;;;3.95;1.60;;;31.80;41.60;;;;;;5066370;28;20017;-69
2022/06/30 12:09:44;;;;;;;4.10;1.70;;;31.90;41.40;;;;;;5045295;28;20551;-67
2022/06/30 12:12:11;;;;;;;4.30;1.95;;;32.00;41.70;;;;;;5052709;28;20024;-68
2022/06/30 12:14:39;;;;;;;2.30;1.20;;;32.00;41.10;;;;;;5042189;28;20422;-69
2022/06/30 12:17:06;;;;;;;1.95;1.23;;;32.00;41.30;;;;;;5042380;28;20029;-69
2022/06/30 12:19:33;;;;;;;3.70;1.60;;;32.20;41.10;;;;;;5046086;28;20028;-68
2022/06/30 12:22:00;;;;;;;4.18;1.77;;;32.20;40.70;;;;;;5047588;28;20087;-68
2022/06/30 12:24:26;;;;;;;3.00;1.30;;;32.00;40.70;;;;;;5040642;28;20067;-68
2022/06/30 12:26:58;;;;;;;3.80;1.40;;;32.00;41.00;;;;;;5049616;28;20399;-68
2022/06/30 12:29:25;;;;;;;2.10;1.30;;;32.10;40.90;;;;;;5045634;28;20392;-68
2022/06/30 12:32:05;;;;;;;2.53;1.42;;;32.00;40.50;;;;;;5047329;28;20383;-68
2022/06/30 12:34:32;;;;;;;1.40;1.20;;;32.10;40.60;;;;;;5048232;28;20021;-68
2022/06/30 12:37:02;;;;;;;2.85;1.40;;;32.00;40.60;;;;;;5054932;28;20082;-68
2022/06/30 12:39:30;;;;;;;3.25;1.20;;;32.10;40.20;;;;;;5065070;28;20021;-68
2022/06/30 12:42:06;;;;;;;3.08;1.20;;;32.10;40.00;;;;;;5056931;28;20050;-68
2022/06/30 12:44:37;;;;;;;2.15;1.20;;;32.10;40.20;;;;;;5056410;28;20098;-68
2022/06/30 12:47:10;;;;;;;;;;;32.30;40.00;;;;;;5065290;28;20028;-67
2022/06/30 12:49:37;;;;;;;2.40;1.23;;;32.50;39.90;;;;;;5055337;28;19909;-68
2022/06/30 12:52:21;;;;;;;2.20;1.30;;;32.50;39.50;;;;;;5045515;28;20021;-68
2022/06/30 12:54:56;;;;;;;1.92;1.20;;;32.30;39.60;;;;;;5042608;28;20026;-68
2022/06/30 12:57:26;;;;;;;3.75;1.55;;;32.50;39.70;;;;;;5039191;28;20869;-69
2022/06/30 12:59:56;;;;;;;2.42;1.00;;;32.60;39.30;;;;;;5041528;28;20488;-69
2022/06/30 13:02:37;;;;;;;2.57;1.50;;;32.80;39.30;;;;;;5038287;28;20025;-68
2022/06/30 13:05:03;;;;;;;2.30;1.30;;;32.60;38.90;;;;;;5037781;28;20638;-67